createdAt,value
2018-09-09T00:02:47.896Z,11.30
2018-09-09T00:07:51.435Z,11.20
2018-09-09T00:12:54.891Z,11.30
2018-09-09T00:23:01.564Z,11.50
2018-09-09T00:28:05.285Z,11.50
2018-09-09T00:33:08.908Z,11.30
2018-09-09T00:38:12.220Z,11.20
2018-09-09T00:43:15.612Z,11.20
2018-09-09T00:48:18.960Z,11.30
2018-09-09T00:53:27.872Z,11.20
2018-09-09T00:58:31.243Z,11.00
2018-09-09T01:03:34.823Z,11.20
2018-09-09T01:08:38.240Z,10.90
2018-09-09T01:13:41.601Z,10.90
2018-09-09T01:18:45.188Z,10.60
2018-09-09T01:23:48.537Z,10.40
2018-09-09T01:28:51.877Z,10.50
2018-09-09T01:33:55.330Z,10.60
2018-09-09T01:38:58.715Z,10.60
2018-09-09T01:44:02.188Z,10.80
2018-09-09T01:49:05.761Z,10.60
2018-09-09T01:54:09.286Z,10.60
2018-09-09T01:59:12.754Z,10.50
2018-09-09T02:04:16.068Z,10.50
2018-09-09T02:09:19.431Z,10.50
2018-09-09T02:14:22.766Z,10.40
2018-09-09T02:19:26.205Z,10.40
2018-09-09T02:24:29.760Z,10.40
2018-09-09T02:29:33.287Z,10.40
2018-09-09T02:34:36.596Z,10.50
2018-09-09T02:39:40.033Z,10.40
2018-09-09T02:44:43.308Z,10.40
2018-09-09T02:49:46.608Z,10.30
2018-09-09T02:54:50.000Z,10.40
2018-09-09T02:59:53.545Z,10.30
2018-09-09T03:04:56.848Z,10.40
2018-09-09T03:10:00.327Z,10.50
2018-09-09T03:15:03.740Z,10.50
2018-09-09T03:20:07.101Z,10.50
2018-09-09T03:30:14.041Z,10.50
2018-09-09T03:35:17.453Z,10.60
2018-09-09T03:40:20.748Z,10.50
2018-09-09T03:45:24.353Z,10.50
2018-09-09T03:50:27.765Z,10.40
2018-09-09T03:55:31.305Z,10.30
2018-09-09T04:00:35.677Z,10.50
2018-09-09T04:05:39.061Z,10.40
2018-09-09T04:10:42.538Z,10.60
2018-09-09T04:15:45.973Z,10.70
2018-09-09T04:20:49.271Z,10.70
2018-09-09T04:25:52.674Z,10.80
2018-09-09T04:30:56.158Z,10.80
2018-09-09T04:35:59.424Z,10.80
2018-09-09T04:41:02.732Z,10.60
2018-09-09T04:46:06.384Z,10.40
2018-09-09T04:51:09.833Z,10.50
2018-09-09T04:56:13.259Z,10.60
2018-09-09T05:01:16.837Z,10.60
2018-09-09T05:06:20.453Z,10.60
2018-09-09T05:11:23.843Z,10.40
2018-09-09T05:16:27.455Z,10.40
2018-09-09T05:21:30.864Z,10.50
2018-09-09T05:26:34.174Z,10.40
2018-09-09T05:31:37.576Z,10.40
2018-09-09T05:36:41.004Z,10.40
2018-09-09T05:41:44.452Z,10.20
2018-09-09T05:46:47.839Z,10.30
2018-09-09T05:51:51.189Z,10.30
2018-09-09T05:56:54.584Z,10.50
2018-09-09T06:01:58.008Z,10.50
2018-09-09T06:07:01.407Z,10.60
2018-09-09T06:12:04.747Z,10.80
2018-09-09T06:17:08.263Z,11.00
2018-09-09T06:22:11.760Z,11.10
2018-09-09T06:27:15.301Z,11.20
2018-09-09T06:32:18.660Z,11.40
2018-09-09T06:37:22.132Z,11.50
2018-09-09T06:42:25.461Z,11.70
2018-09-09T06:47:29.241Z,11.80
2018-09-09T06:52:32.548Z,11.90
2018-09-09T06:57:36.060Z,12.10
2018-09-09T07:02:39.564Z,12.30
2018-09-09T07:07:43.065Z,12.60
2018-09-09T07:12:46.593Z,12.60
2018-09-09T07:17:50.021Z,12.80
2018-09-09T07:22:53.350Z,13.10
2018-09-09T07:27:56.860Z,13.30
2018-09-09T07:33:00.300Z,13.50
2018-09-09T07:38:03.664Z,13.70
2018-09-09T07:43:07.333Z,13.90
2018-09-09T07:48:10.848Z,13.80
2018-09-09T07:53:15.273Z,13.90
2018-09-09T07:58:18.704Z,14.10
2018-09-09T08:03:22.134Z,14.60
2018-09-09T08:08:25.626Z,14.70
2018-09-09T08:13:29.050Z,14.80
2018-09-09T08:18:32.679Z,15.20
2018-09-09T08:23:36.086Z,15.40
2018-09-09T08:28:39.557Z,15.60
2018-09-09T08:33:42.959Z,15.90
2018-09-09T08:38:46.454Z,16.10
2018-09-09T08:43:50.044Z,16.30
2018-09-09T08:48:53.749Z,16.50
2018-09-09T08:53:57.212Z,16.70
2018-09-09T08:59:00.575Z,16.90
2018-09-09T09:04:04.033Z,16.90
2018-09-09T09:09:09.487Z,17.40
2018-09-09T09:14:13.997Z,17.60
2018-09-09T09:19:17.594Z,17.60
2018-09-09T09:24:21.136Z,18.00
2018-09-09T09:29:24.613Z,18.20
2018-09-09T09:34:28.093Z,18.10
2018-09-09T09:39:31.481Z,18.30
2018-09-09T09:44:34.841Z,18.50
2018-09-09T09:49:38.150Z,18.60
2018-09-09T09:54:41.642Z,18.90
2018-09-09T09:59:44.934Z,19.00
2018-09-09T10:04:48.446Z,19.30
2018-09-09T10:09:51.740Z,19.60
2018-09-09T10:14:55.213Z,19.60
2018-09-09T10:19:58.612Z,19.80
2018-09-09T10:25:02.183Z,20.10
2018-09-09T10:30:05.799Z,20.60
2018-09-09T10:35:09.276Z,20.80
2018-09-09T10:40:12.709Z,21.10
2018-09-09T10:45:16.177Z,21.20
2018-09-09T10:50:19.530Z,21.40
2018-09-09T10:55:23.045Z,21.50
2018-09-09T11:00:26.388Z,21.60
2018-09-09T11:05:29.753Z,21.50
2018-09-09T11:10:33.373Z,21.90
2018-09-09T11:15:36.777Z,22.10
2018-09-09T11:25:44.241Z,22.40
2018-09-09T11:30:47.573Z,22.20
2018-09-09T11:35:50.916Z,22.30
2018-09-09T11:40:54.276Z,22.40
2018-09-09T11:45:57.798Z,22.30
2018-09-09T11:51:01.105Z,22.40
2018-09-09T11:56:04.561Z,22.40
2018-09-09T12:01:07.890Z,22.50
2018-09-09T12:06:11.225Z,22.60
2018-09-09T12:11:14.708Z,22.70
2018-09-09T12:16:18.144Z,22.70
2018-09-09T12:21:21.512Z,22.90
2018-09-09T12:26:24.839Z,22.90
2018-09-09T12:31:28.300Z,23.00
2018-09-09T12:36:31.731Z,23.10
2018-09-09T12:41:35.033Z,23.30
2018-09-09T12:46:43.690Z,23.10
2018-09-09T12:51:47.197Z,23.00
2018-09-09T12:56:50.498Z,23.00
2018-09-09T13:01:53.952Z,23.40
2018-09-09T13:06:57.479Z,23.30
2018-09-09T13:12:00.816Z,23.00
2018-09-09T13:17:04.316Z,23.20
2018-09-09T13:22:07.781Z,23.10
2018-09-09T13:27:11.095Z,23.30
2018-09-09T13:32:14.543Z,23.30
2018-09-09T13:37:18.106Z,23.10
2018-09-09T13:42:21.741Z,23.10
2018-09-09T13:47:25.176Z,23.00
2018-09-09T13:52:31.432Z,22.90
2018-09-09T13:57:35.084Z,22.90
2018-09-09T14:02:38.595Z,22.80
2018-09-09T14:07:42.198Z,22.80
2018-09-09T14:12:45.626Z,22.80
2018-09-09T14:17:48.954Z,22.90
2018-09-09T14:22:52.588Z,22.90
2018-09-09T14:27:56.056Z,22.90
2018-09-09T14:32:59.343Z,22.90
2018-09-09T14:38:02.780Z,22.90
2018-09-09T14:43:06.240Z,22.90
2018-09-09T14:48:09.725Z,22.90
2018-09-09T14:53:13.292Z,22.90
2018-09-09T14:58:17.155Z,22.90
2018-09-09T15:03:20.621Z,22.90
2018-09-09T15:08:24.045Z,22.90
2018-09-09T15:13:27.414Z,22.90
2018-09-09T15:18:30.831Z,23.00
2018-09-09T15:23:34.158Z,23.00
2018-09-09T15:28:37.632Z,23.00
2018-09-09T15:33:40.976Z,23.20
2018-09-09T15:38:44.333Z,23.40
2018-09-09T15:43:47.857Z,23.50
2018-09-09T15:48:51.237Z,23.90
2018-09-09T15:53:54.785Z,24.20
2018-09-09T15:58:58.380Z,24.40
2018-09-09T16:04:01.673Z,24.50
2018-09-09T16:09:07.472Z,24.50
2018-09-09T16:14:10.925Z,24.60
2018-09-09T16:19:14.378Z,24.20
2018-09-09T16:24:17.821Z,24.00
2018-09-09T16:29:21.233Z,23.90
2018-09-09T16:34:24.601Z,23.70
2018-09-09T16:39:27.949Z,23.60
2018-09-09T16:44:31.345Z,23.50
2018-09-09T16:49:34.757Z,23.40
2018-09-09T16:54:38.345Z,23.10
2018-09-09T16:59:42.059Z,23.00
2018-09-09T17:04:45.633Z,22.90
2018-09-09T17:09:49.014Z,22.80
2018-09-09T17:14:52.640Z,22.70
2018-09-09T17:19:56.058Z,22.60
2018-09-09T17:24:59.693Z,22.40
2018-09-09T17:30:03.164Z,22.10
2018-09-09T17:35:06.565Z,22.10
2018-09-09T17:40:10.120Z,21.90
2018-09-09T17:45:13.761Z,21.40
2018-09-09T17:50:17.443Z,21.20
2018-09-09T17:55:20.952Z,21.20
2018-09-09T18:00:24.346Z,21.10
2018-09-09T18:05:27.796Z,21.00
2018-09-09T18:10:31.378Z,20.80
2018-09-09T18:15:34.856Z,20.70
2018-09-09T18:20:38.221Z,20.50
2018-09-09T18:25:41.765Z,20.20
2018-09-09T18:30:45.197Z,20.10
2018-09-09T18:35:48.554Z,20.10
2018-09-09T18:40:52.258Z,19.70
2018-09-09T18:45:55.736Z,19.40
2018-09-09T18:51:00.075Z,19.00
2018-09-09T18:56:03.957Z,19.20
2018-09-09T19:01:09.082Z,19.00
2018-09-09T19:06:13.116Z,19.10
2018-09-09T19:11:16.777Z,18.70
2018-09-09T19:16:20.904Z,18.50
2018-09-09T19:21:24.611Z,18.30
2018-09-09T19:26:28.449Z,18.30
2018-09-09T19:31:32.560Z,18.30
2018-09-09T19:36:36.509Z,18.00
2018-09-09T19:41:40.793Z,18.20
2018-09-09T19:46:44.220Z,18.10
2018-09-09T19:51:48.032Z,17.80
2018-09-09T19:56:51.551Z,17.60
2018-09-09T20:01:55.309Z,17.30
2018-09-09T20:06:59.590Z,17.20
2018-09-09T20:12:03.082Z,17.10
2018-09-09T20:17:07.061Z,17.00
2018-09-09T20:22:12.478Z,16.90
2018-09-09T20:27:17.628Z,16.90
2018-09-09T20:32:22.318Z,16.70
2018-09-09T20:37:27.358Z,16.50
2018-09-09T20:42:33.280Z,16.40
2018-09-09T20:47:36.895Z,16.30
2018-09-09T20:52:40.443Z,16.40
2018-09-09T20:57:43.807Z,16.40
2018-09-09T21:02:47.169Z,16.30
2018-09-09T21:07:50.754Z,16.10
2018-09-09T21:12:54.314Z,15.90
2018-09-09T21:17:57.724Z,15.70
2018-09-09T21:23:01.236Z,16.00
2018-09-09T21:28:04.697Z,16.00
2018-09-09T21:33:08.008Z,15.90
2018-09-09T21:38:11.341Z,15.80
2018-09-09T21:43:14.908Z,15.80
2018-09-09T21:48:18.384Z,15.50
2018-09-09T21:53:21.812Z,15.60
2018-09-09T21:58:25.165Z,15.60
2018-09-09T22:03:28.632Z,15.40
2018-09-09T22:08:32.009Z,15.40
2018-09-09T22:13:35.653Z,15.40
2018-09-09T22:18:39.033Z,15.30
2018-09-09T22:23:42.498Z,15.00
2018-09-09T22:28:46.058Z,15.00
2018-09-09T22:33:49.388Z,14.80
2018-09-09T22:38:52.732Z,14.60
2018-09-09T22:43:56.271Z,14.70
2018-09-09T22:48:59.625Z,14.20
2018-09-09T22:54:03.531Z,14.30
2018-09-09T22:59:06.903Z,14.20
2018-09-09T23:04:10.302Z,13.80
2018-09-09T23:09:13.681Z,13.60
2018-09-09T23:14:17.065Z,13.60
2018-09-09T23:19:20.494Z,13.50
2018-09-09T23:24:23.851Z,13.70
2018-09-09T23:29:27.194Z,13.50
2018-09-09T23:34:30.597Z,13.40
2018-09-09T23:39:33.983Z,13.30
2018-09-09T23:44:37.453Z,13.20
2018-09-09T23:49:40.813Z,13.20
2018-09-09T23:54:44.437Z,13.10
2018-09-09T23:59:47.755Z,13.10
